Time;durP1;ratioP1;P1;durP2;ratioP2;P2;SDS_P1;SDS_P2;PMS_P1;PMS_P2;Temp;Humidity;BMP_temperature;BMP_pressure;BME280_temperature;BME280_humidity;BME280_pressure;Samples;Min_cycle;Max_cycle;Signal;HPM_P1;HPM_P2
2021/08/07 00:01:25;;;;;;;0.10;0.10;;;17.30;99.90;;;;;;4938309;29;20082;-76
2021/08/07 00:03:53;;;;;;;0.10;0.10;;;17.30;99.90;;;;;;4938057;29;20045;-76
2021/08/07 00:06:18;;;;;;;0.10;0.10;;;17.40;99.90;;;;;;4955219;28;20030;-76
2021/08/07 00:08:44;;;;;;;0.10;0.10;;;17.50;99.90;;;;;;4922364;29;20031;-76
2021/08/07 00:11:10;;;;;;;0.15;0.15;;;17.50;99.90;;;;;;4922113;29;20426;-76
2021/08/07 00:13:37;;;;;;;0.10;0.10;;;17.50;99.90;;;;;;4937744;28;20598;-76
2021/08/07 00:16:03;;;;;;;0.00;0.00;;;17.50;99.90;;;;;;4938009;29;20102;-76
2021/08/07 00:18:29;;;;;;;0.10;0.10;;;17.70;99.90;;;;;;4921986;29;20126;-76
2021/08/07 00:20:55;;;;;;;0.10;0.10;;;17.80;99.90;;;;;;4955016;29;20031;-76
2021/08/07 00:23:20;;;;;;;0.10;0.10;;;18.00;99.90;;;;;;4937693;28;20027;-76
2021/08/07 00:25:46;;;;;;;0.10;0.10;;;18.00;99.90;;;;;;4937851;29;20039;-76
2021/08/07 00:28:12;;;;;;;0.10;0.10;;;17.90;99.90;;;;;;4954843;29;20034;-76
2021/08/07 00:30:38;;;;;;;0.10;0.10;;;17.70;99.90;;;;;;4954959;28;20483;-76
2021/08/07 00:33:03;;;;;;;0.10;0.10;;;17.60;99.90;;;;;;4937491;29;20380;-76
2021/08/07 00:35:29;;;;;;;0.10;0.10;;;17.70;99.90;;;;;;4921661;29;20038;-76
2021/08/07 00:37:55;;;;;;;0.15;0.15;;;17.90;99.90;;;;;;4937608;29;20027;-76
2021/08/07 00:40:21;;;;;;;0.10;0.10;;;17.90;99.90;;;;;;4937680;29;20071;-76
2021/08/07 00:42:46;;;;;;;0.10;0.10;;;17.90;99.90;;;;;;4954590;28;20047;-76
2021/08/07 00:45:13;;;;;;;0.10;0.10;;;18.00;99.90;;;;;;4937266;29;20031;-75
2021/08/07 00:47:39;;;;;;;0.20;0.20;;;17.80;99.90;;;;;;4937283;29;20114;-76
2021/08/07 00:50:06;;;;;;;0.28;0.28;;;17.70;99.90;;;;;;4937306;29;20286;-76
2021/08/07 00:52:32;;;;;;;0.10;0.10;;;17.50;99.90;;;;;;4954161;29;20110;-76
2021/08/07 00:54:59;;;;;;;0.03;0.03;;;17.60;99.90;;;;;;4937218;29;20119;-76
2021/08/07 00:57:26;;;;;;;0.10;0.10;;;17.70;99.90;;;;;;4954474;29;20027;-76
2021/08/07 00:59:51;;;;;;;0.10;0.10;;;17.70;99.90;;;;;;4921434;29;20027;-76
2021/08/07 01:02:19;;;;;;;0.05;0.05;;;17.70;99.90;;;;;;4954188;28;20090;-76
2021/08/07 01:04:52;;;;;;;0.00;0.00;;;17.80;99.90;;;;;;4954284;28;20027;-76
2021/08/07 01:07:48;;;;;;;0.10;0.10;;;17.90;99.90;;;;;;4937001;29;20119;-76
2021/08/07 01:10:39;;;;;;;0.10;0.10;;;17.90;99.90;;;;;;4894680;28;20038;-76
2021/08/07 01:13:17;;;;;;;0.00;0.00;;;17.90;99.90;;;;;;4953838;29;20020;-76
2021/08/07 01:15:46;;;;;;;0.00;0.00;;;17.90;99.90;;;;;;4921330;29;20038;-76
2021/08/07 01:18:14;;;;;;;0.10;0.10;;;17.90;99.90;;;;;;4936749;29;20419;-76
2021/08/07 01:20:52;;;;;;;0.08;0.08;;;17.90;99.90;;;;;;4937064;29;20032;-76
2021/08/07 01:23:47;;;;;;;0.10;0.10;;;17.90;99.90;;;;;;4936500;28;20031;-76
2021/08/07 01:26:19;;;;;;;0.10;0.10;;;17.80;99.90;;;;;;4936842;29;20031;-76
2021/08/07 01:28:45;;;;;;;;;;;17.90;99.90;;;;;;4954574;28;20034;-76
2021/08/07 01:31:13;;;;;;;0.10;0.10;;;17.90;99.90;;;;;;4936598;29;19918;-76
2021/08/07 01:33:42;;;;;;;0.10;0.10;;;17.90;99.90;;;;;;4953681;28;20023;-76
2021/08/07 01:36:09;;;;;;;0.00;0.00;;;17.80;99.90;;;;;;4936971;29;20023;-76
2021/08/07 01:38:37;;;;;;;0.00;0.00;;;17.90;99.90;;;;;;4954001;29;20023;-76
2021/08/07 01:41:03;;;;;;;0.10;0.10;;;17.90;99.90;;;;;;4920947;29;20028;-76
2021/08/07 01:43:29;;;;;;;0.10;0.10;;;17.80;99.90;;;;;;4953806;28;20027;-76
2021/08/07 01:45:55;;;;;;;0.05;0.05;;;18.00;99.90;;;;;;4953656;28;20034;-76
2021/08/07 01:48:45;;;;;;;0.10;0.10;;;18.00;99.90;;;;;;4936497;29;20118;-76
2021/08/07 01:51:24;;;;;;;0.10;0.10;;;18.10;99.90;;;;;;4920769;29;20033;-76
2021/08/07 01:53:53;;;;;;;0.10;0.10;;;18.10;99.90;;;;;;4936577;29;20365;-76
2021/08/07 01:56:31;;;;;;;0.10;0.10;;;18.30;99.90;;;;;;4936601;29;20031;-76
2021/08/07 01:58:59;;;;;;;0.10;0.10;;;18.10;99.90;;;;;;4936545;29;20110;-76
2021/08/07 02:01:26;;;;;;;0.10;0.10;;;17.90;99.90;;;;;;4936534;29;20027;-76
2021/08/07 02:03:57;;;;;;;0.10;0.10;;;17.80;99.90;;;;;;4936493;29;20028;-76
2021/08/07 02:06:24;;;;;;;0.10;0.10;;;17.60;99.90;;;;;;4953487;29;20082;-76
2021/08/07 02:08:51;;;;;;;0.10;0.10;;;17.50;99.90;;;;;;4953827;29;20066;-76
2021/08/07 02:11:18;;;;;;;0.00;0.00;;;17.60;99.90;;;;;;4936144;29;20027;-76
2021/08/07 02:13:44;;;;;;;0.00;0.00;;;17.70;99.90;;;;;;4936438;29;20118;-76
2021/08/07 02:16:11;;;;;;;0.10;0.10;;;17.70;99.90;;;;;;4953659;29;20101;-76
2021/08/07 02:18:40;;;;;;;0.05;0.05;;;17.70;99.90;;;;;;4953574;29;20027;-76
2021/08/07 02:21:06;;;;;;;0.10;0.10;;;17.70;99.90;;;;;;4953568;29;20023;-76
2021/08/07 02:23:32;;;;;;;0.00;0.00;;;17.60;99.90;;;;;;4937489;28;20146;-76
2021/08/07 02:26:01;;;;;;;0.10;0.10;;;17.50;99.90;;;;;;4957097;29;20104;-76
2021/08/07 02:28:27;;;;;;;0.10;0.10;;;17.50;99.90;;;;;;4924090;29;20510;-76
2021/08/07 02:30:54;;;;;;;0.10;0.10;;;17.50;99.90;;;;;;4923960;29;20026;-76
2021/08/07 02:33:22;;;;;;;0.05;0.05;;;17.40;99.90;;;;;;4923784;28;20058;-76
2021/08/07 02:35:50;;;;;;;0.10;0.10;;;17.40;99.90;;;;;;4939814;29;20030;-76
2021/08/07 02:38:18;;;;;;;0.10;0.10;;;17.40;99.90;;;;;;4939668;29;20027;-76
2021/08/07 02:40:44;;;;;;;0.10;0.10;;;17.30;99.90;;;;;;4939729;29;20480;-76
2021/08/07 02:43:12;;;;;;;0.10;0.10;;;17.20;99.90;;;;;;4939403;29;20130;-76
2021/08/07 02:45:38;;;;;;;0.10;0.10;;;16.90;99.90;;;;;;4939578;29;20424;-76
2021/08/07 02:48:05;;;;;;;0.10;0.10;;;16.80;99.90;;;;;;4956731;29;20031;-76
2021/08/07 02:50:31;;;;;;;0.10;0.10;;;16.80;99.90;;;;;;4939637;29;20404;-76
2021/08/07 02:52:57;;;;;;;0.20;0.20;;;16.70;99.90;;;;;;4957086;29;20364;-76
2021/08/07 02:55:24;;;;;;;0.05;0.05;;;16.80;99.90;;;;;;4939386;29;20443;-76
2021/08/07 02:57:53;;;;;;;0.10;0.10;;;16.70;99.90;;;;;;4939537;29;20404;-76
2021/08/07 03:00:20;;;;;;;0.10;0.10;;;16.70;99.90;;;;;;4956463;28;20340;-76
2021/08/07 03:02:46;;;;;;;0.10;0.10;;;16.60;99.90;;;;;;4956468;28;20542;-76
2021/08/07 03:05:12;;;;;;;0.10;0.10;;;16.50;99.90;;;;;;4923362;29;20027;-76
2021/08/07 03:07:38;;;;;;;0.10;0.10;;;16.60;99.90;;;;;;4939073;29;20480;-76
2021/08/07 03:10:06;;;;;;;0.10;0.10;;;16.60;99.90;;;;;;4923327;29;20024;-76
2021/08/07 03:12:33;;;;;;;0.10;0.10;;;16.70;99.90;;;;;;4938917;29;20061;-76
2021/08/07 03:14:58;;;;;;;0.10;0.10;;;16.80;99.90;;;;;;4938835;29;20032;-76
2021/08/07 03:17:24;;;;;;;0.10;0.10;;;17.00;99.90;;;;;;4939222;29;20507;-76
2021/08/07 03:19:50;;;;;;;0.13;0.13;;;17.10;99.90;;;;;;4956270;29;20023;-76
2021/08/07 03:22:17;;;;;;;0.10;0.10;;;17.20;99.90;;;;;;4938814;29;20039;-76
2021/08/07 03:24:43;;;;;;;0.10;0.10;;;17.20;99.90;;;;;;4955970;28;20545;-76
2021/08/07 03:27:09;;;;;;;0.05;0.05;;;17.10;99.90;;;;;;4956078;29;20086;-76
2021/08/07 03:29:35;;;;;;;0.10;0.10;;;17.10;99.90;;;;;;4956030;29;20476;-76
2021/08/07 03:32:01;;;;;;;0.10;0.10;;;17.00;99.90;;;;;;4938807;29;20027;-76
2021/08/07 03:34:27;;;;;;;0.10;0.10;;;16.90;99.90;;;;;;4922291;29;20210;-76
2021/08/07 03:36:53;;;;;;;0.10;0.10;;;16.60;99.90;;;;;;4938782;29;20020;-76
2021/08/07 03:39:18;;;;;;;0.10;0.10;;;16.70;99.90;;;;;;4955848;28;20490;-76
2021/08/07 03:41:44;;;;;;;0.10;0.10;;;16.60;99.90;;;;;;4955701;29;20086;-76
2021/08/07 03:44:10;;;;;;;0.10;0.10;;;16.60;99.90;;;;;;4955675;28;20019;-76
2021/08/07 03:46:36;;;;;;;0.10;0.10;;;16.60;99.90;;;;;;4922461;29;20028;-76
2021/08/07 03:49:01;;;;;;;0.10;0.10;;;16.80;99.90;;;;;;4938444;29;20050;-76
2021/08/07 03:51:27;;;;;;;0.00;0.00;;;16.80;99.90;;;;;;4922346;29;20027;-76
2021/08/07 03:53:53;;;;;;;0.30;0.30;;;16.90;99.90;;;;;;4955413;28;20074;-76
2021/08/07 03:56:19;;;;;;;0.10;0.10;;;16.90;99.90;;;;;;4955614;29;20038;-76
2021/08/07 03:58:45;;;;;;;0.10;0.10;;;17.00;99.90;;;;;;4938222;29;20464;-76
2021/08/07 04:01:10;;;;;;;0.10;0.10;;;17.00;99.90;;;;;;4938037;29;20114;-76
2021/08/07 04:03:36;;;;;;;0.03;0.03;;;16.80;99.90;;;;;;4938185;28;20027;-76
2021/08/07 04:06:02;;;;;;;0.10;0.10;;;16.80;99.90;;;;;;4955119;28;20155;-76
2021/08/07 04:08:28;;;;;;;0.10;0.10;;;16.80;99.90;;;;;;4955557;28;20571;-76
2021/08/07 04:10:53;;;;;;;0.10;0.10;;;16.80;99.90;;;;;;4922043;29;20023;-76
2021/08/07 04:13:19;;;;;;;0.10;0.10;;;16.70;99.90;;;;;;4938068;28;20024;-76
2021/08/07 04:15:45;;;;;;;0.10;0.10;;;16.60;99.90;;;;;;4955075;28;20059;-76
2021/08/07 04:18:10;;;;;;;0.10;0.10;;;16.60;99.90;;;;;;4937859;29;20035;-76
2021/08/07 04:20:36;;;;;;;0.10;0.10;;;16.70;99.90;;;;;;4954875;29;20030;-76
2021/08/07 04:23:03;;;;;;;0.08;0.08;;;16.80;99.90;;;;;;4937884;29;20087;-76
2021/08/07 04:25:29;;;;;;;0.10;0.10;;;16.90;99.90;;;;;;4954835;28;20101;-76
2021/08/07 04:27:55;;;;;;;0.10;0.10;;;16.90;99.90;;;;;;4954889;29;20473;-76
2021/08/07 04:30:21;;;;;;;0.00;0.00;;;16.80;99.90;;;;;;4921797;29;20027;-76
2021/08/07 04:32:46;;;;;;;0.10;0.10;;;16.70;99.90;;;;;;4954745;28;20452;-76
2021/08/07 04:35:12;;;;;;;0.10;0.10;;;16.70;99.90;;;;;;4921691;29;20027;-76
2021/08/07 04:37:46;;;;;;;0.10;0.10;;;16.80;99.90;;;;;;4937770;29;20507;-76
2021/08/07 04:40:13;;;;;;;0.10;0.10;;;16.80;99.90;;;;;;4921746;29;20023;-76
2021/08/07 04:42:39;;;;;;;0.10;0.10;;;16.90;99.90;;;;;;4954633;29;20024;-76
2021/08/07 04:45:06;;;;;;;0.10;0.10;;;16.80;99.90;;;;;;4954735;28;20372;-76
2021/08/07 04:47:31;;;;;;;0.10;0.10;;;16.80;99.90;;;;;;4938087;29;20023;-76
2021/08/07 04:49:57;;;;;;;0.10;0.10;;;16.70;99.90;;;;;;4954535;29;20432;-75
2021/08/07 04:52:23;;;;;;;0.10;0.10;;;16.60;99.90;;;;;;4954437;29;20360;-75
2021/08/07 04:54:48;;;;;;;0.10;0.10;;;16.60;99.90;;;;;;4937060;29;20067;-75
2021/08/07 04:57:14;;;;;;;0.10;0.10;;;16.70;99.90;;;;;;4954407;29;20027;-76
2021/08/07 04:59:40;;;;;;;0.10;0.10;;;16.70;99.90;;;;;;4937060;29;20031;-75
2021/08/07 05:02:05;;;;;;;0.20;0.20;;;16.50;99.90;;;;;;4937126;29;20432;-75
2021/08/07 05:04:31;;;;;;;0.10;0.10;;;16.50;99.90;;;;;;4954550;28;20145;-75
2021/08/07 05:06:57;;;;;;;0.00;0.00;;;16.70;99.90;;;;;;4937150;29;20407;-75
2021/08/07 05:09:23;;;;;;;0.00;0.00;;;16.60;99.90;;;;;;4937113;29;20372;-76
2021/08/07 05:11:48;;;;;;;0.10;0.10;;;16.60;99.90;;;;;;4954147;29;20438;-76
2021/08/07 05:14:14;;;;;;;0.10;0.10;;;16.60;99.90;;;;;;4954313;28;20027;-75
2021/08/07 05:16:40;;;;;;;0.00;0.00;;;16.60;99.90;;;;;;4920836;29;20027;-75
2021/08/07 05:19:06;;;;;;;0.10;0.10;;;16.70;99.90;;;;;;4954354;29;20475;-75
2021/08/07 05:21:31;;;;;;;0.10;0.10;;;16.70;99.90;;;;;;4936705;29;20038;-76
2021/08/07 05:23:57;;;;;;;0.60;0.55;;;16.90;99.90;;;;;;4954151;28;20027;-76
2021/08/07 05:26:23;;;;;;;0.10;0.10;;;16.90;99.90;;;;;;4920908;29;20023;-75
2021/08/07 05:28:49;;;;;;;0.10;0.10;;;16.90;99.90;;;;;;4936966;29;20471;-76
2021/08/07 05:31:14;;;;;;;0.63;0.60;;;16.90;99.90;;;;;;4954145;28;20078;-76
2021/08/07 05:33:40;;;;;;;0.10;0.10;;;16.90;99.90;;;;;;4937067;28;20024;-76
2021/08/07 05:36:06;;;;;;;0.10;0.10;;;17.00;99.90;;;;;;4954576;29;20492;-75
2021/08/07 05:38:32;;;;;;;0.10;0.10;;;17.10;99.90;;;;;;4937321;29;20090;-76
2021/08/07 05:40:57;;;;;;;0.10;0.10;;;17.30;99.90;;;;;;4936703;29;20177;-76
2021/08/07 05:43:23;;;;;;;0.10;0.10;;;17.40;99.90;;;;;;4953836;28;20086;-76
2021/08/07 05:45:49;;;;;;;0.10;0.10;;;17.50;99.90;;;;;;4936475;29;20023;-75
2021/08/07 05:48:18;;;;;;;0.10;0.10;;;17.50;99.90;;;;;;4953955;29;20027;-76
2021/08/07 05:50:44;;;;;;;0.00;0.00;;;17.80;99.90;;;;;;4936598;29;20393;-75
2021/08/07 05:53:09;;;;;;;0.00;0.00;;;18.00;99.90;;;;;;4920645;29;20023;-75
2021/08/07 05:55:35;;;;;;;0.10;0.10;;;18.00;99.90;;;;;;4953433;28;20034;-76
2021/08/07 05:58:03;;;;;;;0.10;0.10;;;18.10;99.90;;;;;;4956157;28;20534;-78
2021/08/07 06:00:29;;;;;;;0.10;0.10;;;18.20;99.90;;;;;;4958321;29;20122;-77
2021/08/07 06:02:55;;;;;;;0.10;0.10;;;18.10;99.90;;;;;;4940087;29;20036;-76
2021/08/07 06:05:20;;;;;;;0.05;0.05;;;18.10;99.90;;;;;;4956230;28;20035;-76
2021/08/07 06:07:50;;;;;;;0.10;0.10;;;18.20;99.90;;;;;;4959523;28;20031;-76
2021/08/07 06:10:16;;;;;;;0.03;0.03;;;18.40;99.90;;;;;;4940259;29;20432;-76
2021/08/07 06:12:41;;;;;;;0.00;0.00;;;18.40;99.90;;;;;;4940539;29;20055;-76
2021/08/07 06:15:07;;;;;;;0.30;0.30;;;18.50;99.90;;;;;;4940217;29;20078;-76
2021/08/07 06:17:33;;;;;;;0.10;0.10;;;18.60;99.90;;;;;;4957173;28;20459;-73
2021/08/07 06:19:59;;;;;;;0.10;0.10;;;18.60;99.90;;;;;;4957517;28;20058;-72
2021/08/07 06:22:25;;;;;;;0.00;0.00;;;18.70;99.90;;;;;;4976072;28;20085;-73
2021/08/07 06:24:50;;;;;;;0.10;0.10;;;18.80;99.90;;;;;;4958779;28;20027;-72
2021/08/07 06:27:16;;;;;;;0.10;0.10;;;18.90;99.90;;;;;;4976458;28;20057;-73
2021/08/07 06:29:42;;;;;;;0.10;0.10;;;18.90;99.90;;;;;;4976521;28;20026;-73
2021/08/07 06:32:07;;;;;;;0.10;0.10;;;19.00;99.90;;;;;;4976113;28;20019;-72
2021/08/07 06:34:33;;;;;;;0.03;0.03;;;19.10;99.90;;;;;;4975640;28;20487;-73
2021/08/07 06:36:59;;;;;;;0.00;0.00;;;19.30;99.90;;;;;;4976057;28;20081;-73
2021/08/07 06:39:25;;;;;;;0.08;0.08;;;19.40;99.90;;;;;;4976053;28;20146;-73
2021/08/07 06:41:51;;;;;;;0.08;0.08;;;19.50;99.90;;;;;;4941411;28;20086;-72
2021/08/07 06:44:16;;;;;;;0.10;0.10;;;19.50;99.90;;;;;;4923368;29;20027;-72
2021/08/07 06:46:42;;;;;;;0.10;0.10;;;19.50;99.90;;;;;;4938526;29;20046;-73
2021/08/07 06:49:08;;;;;;;0.10;0.10;;;19.40;99.90;;;;;;4956678;29;20019;-72
2021/08/07 06:51:33;;;;;;;0.10;0.10;;;19.50;99.90;;;;;;4937862;29;20023;-72
2021/08/07 06:53:59;;;;;;;0.10;0.10;;;19.60;99.90;;;;;;4954486;28;20033;-72
2021/08/07 06:56:25;;;;;;;0.00;0.00;;;19.60;99.90;;;;;;4922397;29;20380;-72
2021/08/07 06:58:51;;;;;;;0.10;0.10;;;19.50;99.90;;;;;;4956380;29;20387;-72
2021/08/07 07:01:16;;;;;;;0.10;0.10;;;19.60;99.90;;;;;;4956353;28;20032;-72
2021/08/07 07:03:42;;;;;;;0.10;0.10;;;19.70;99.90;;;;;;4955274;29;20035;-72
2021/08/07 07:06:08;;;;;;;0.15;0.15;;;20.00;99.90;;;;;;4922607;29;20027;-72
2021/08/07 07:08:34;;;;;;;0.10;0.10;;;20.00;99.90;;;;;;4954993;28;20039;-73
2021/08/07 07:10:59;;;;;;;0.10;0.10;;;19.90;99.90;;;;;;4956097;28;20459;-73
2021/08/07 07:13:25;;;;;;;0.10;0.10;;;19.80;99.90;;;;;;4955479;29;20078;-73
2021/08/07 07:15:51;;;;;;;0.10;0.10;;;19.90;99.90;;;;;;4938776;29;20167;-72
2021/08/07 07:18:16;;;;;;;0.10;0.10;;;19.90;99.90;;;;;;4956177;29;20055;-72
2021/08/07 07:20:42;;;;;;;0.10;0.10;;;19.90;99.90;;;;;;4956081;28;20055;-73
2021/08/07 07:23:09;;;;;;;0.10;0.10;;;20.00;99.90;;;;;;4955764;29;20543;-73
2021/08/07 07:25:35;;;;;;;0.10;0.10;;;19.90;99.90;;;;;;4955841;29;20023;-73
2021/08/07 07:28:01;;;;;;;0.10;0.10;;;20.00;99.90;;;;;;4955853;29;20604;-72
2021/08/07 07:30:30;;;;;;;0.00;0.00;;;20.30;99.90;;;;;;4955885;29;20019;-72
2021/08/07 07:32:56;;;;;;;0.10;0.10;;;20.60;99.90;;;;;;4955533;29;20016;-73
2021/08/07 07:35:22;;;;;;;0.05;0.05;;;20.90;99.90;;;;;;4955868;28;20375;-73
2021/08/07 07:37:48;;;;;;;0.10;0.10;;;21.10;99.90;;;;;;4955678;29;20034;-73
2021/08/07 07:40:14;;;;;;;0.03;0.03;;;21.30;99.90;;;;;;4938753;29;20031;-73
2021/08/07 07:42:39;;;;;;;0.10;0.10;;;21.40;99.90;;;;;;4955061;29;20110;-73
2021/08/07 07:45:07;;;;;;;0.10;0.10;;;21.40;99.90;;;;;;4955480;28;20027;-72
2021/08/07 07:47:33;;;;;;;0.03;0.03;;;21.50;99.90;;;;;;4922404;29;20030;-72
2021/08/07 07:49:59;;;;;;;0.22;0.22;;;21.70;99.90;;;;;;4955548;28;20028;-73
2021/08/07 07:52:25;;;;;;;0.10;0.10;;;21.70;99.00;;;;;;4937790;29;20051;-72
2021/08/07 07:54:50;;;;;;;0.38;0.38;;;21.90;99.40;;;;;;4937980;29;20035;-73
2021/08/07 07:57:18;;;;;;;0.30;0.30;;;21.90;98.30;;;;;;4955061;28;20039;-73
2021/08/07 07:59:44;;;;;;;0.10;0.10;;;22.00;98.20;;;;;;4955450;29;20372;-73
2021/08/07 08:02:09;;;;;;;0.50;0.50;;;21.90;98.50;;;;;;4937764;29;20047;-72
2021/08/07 08:04:35;;;;;;;0.00;0.00;;;22.10;98.10;;;;;;4938152;29;20336;-73
2021/08/07 08:07:01;;;;;;;0.32;0.32;;;22.30;97.70;;;;;;4955030;28;20125;-73
2021/08/07 08:09:28;;;;;;;0.00;0.00;;;22.60;96.40;;;;;;4937959;29;20106;-72
2021/08/07 08:11:54;;;;;;;0.10;0.10;;;22.50;94.90;;;;;;4937679;29;20391;-73
2021/08/07 08:14:20;;;;;;;0.52;0.47;;;22.70;94.20;;;;;;4954917;28;20483;-72
2021/08/07 08:16:46;;;;;;;0.10;0.10;;;22.90;94.90;;;;;;4921787;29;20039;-72
2021/08/07 08:19:14;;;;;;;0.08;0.08;;;23.00;94.60;;;;;;4937911;29;20098;-73
2021/08/07 08:21:40;;;;;;;0.00;0.00;;;23.20;94.00;;;;;;4936794;29;20035;-72
2021/08/07 08:24:06;;;;;;;0.00;0.00;;;23.30;94.10;;;;;;4954718;28;20030;-73
2021/08/07 08:26:32;;;;;;;0.00;0.00;;;23.50;93.20;;;;;;4954839;29;20114;-73
2021/08/07 08:28:58;;;;;;;0.05;0.05;;;23.60;92.30;;;;;;4954499;29;20019;-72
2021/08/07 08:31:24;;;;;;;0.43;0.43;;;23.30;92.20;;;;;;4921622;29;20122;-73
2021/08/07 08:33:49;;;;;;;0.08;0.08;;;23.30;92.20;;;;;;4954672;29;20059;-73
2021/08/07 08:36:15;;;;;;;0.03;0.00;;;23.30;91.90;;;;;;4937358;29;20019;-73
2021/08/07 08:38:41;;;;;;;0.10;0.10;;;23.60;90.00;;;;;;4937184;29;20408;-73
2021/08/07 08:41:07;;;;;;;0.00;0.00;;;23.90;85.40;;;;;;4937468;29;20053;-73
2021/08/07 08:43:33;;;;;;;0.45;0.45;;;23.90;87.00;;;;;;4954335;28;20034;-74
2021/08/07 08:45:59;;;;;;;0.20;0.20;;;24.20;84.60;;;;;;4954334;29;20391;-74
2021/08/07 08:48:25;;;;;;;0.00;0.00;;;24.40;82.50;;;;;;4937585;29;20030;-74
2021/08/07 08:50:52;;;;;;;0.20;0.10;;;24.40;78.10;;;;;;4936959;29;20023;-74
2021/08/07 08:53:18;;;;;;;1.45;0.40;;;24.50;78.80;;;;;;4954558;29;20415;-75
2021/08/07 08:55:44;;;;;;;0.70;0.70;;;24.40;80.30;;;;;;4954451;29;20031;-73
2021/08/07 08:58:10;;;;;;;0.00;0.00;;;24.70;80.60;;;;;;4954396;29;20521;-75
2021/08/07 09:00:36;;;;;;;0.10;0.10;;;25.20;78.90;;;;;;4937223;29;20027;-73
2021/08/07 09:03:02;;;;;;;0.25;0.25;;;25.30;76.40;;;;;;4954097;29;20038;-73
2021/08/07 09:05:28;;;;;;;0.93;0.35;;;25.40;76.50;;;;;;4954216;28;20023;-72
2021/08/07 09:07:53;;;;;;;0.03;0.03;;;25.40;75.80;;;;;;4954250;29;20035;-73
2021/08/07 09:10:24;;;;;;;0.00;0.00;;;25.70;76.30;;;;;;4954236;28;20023;-73
2021/08/07 09:12:55;;;;;;;0.10;0.10;;;25.90;76.50;;;;;;4936787;29;20023;-72
2021/08/07 09:15:33;;;;;;;0.00;0.00;;;25.90;74.60;;;;;;4936713;29;20078;-72
2021/08/07 09:18:13;;;;;;;0.20;0.20;;;26.10;73.90;;;;;;4954068;29;20484;-73
2021/08/07 09:20:42;;;;;;;0.00;0.00;;;26.10;72.20;;;;;;4936729;29;20027;-72
2021/08/07 09:23:08;;;;;;;0.00;0.00;;;26.20;73.60;;;;;;4936668;29;20024;-72
2021/08/07 09:25:36;;;;;;;0.15;0.15;;;26.50;73.10;;;;;;4936626;29;20113;-73
2021/08/07 09:28:02;;;;;;;0.00;0.00;;;26.60;71.70;;;;;;4954083;28;20431;-73
2021/08/07 09:30:32;;;;;;;0.47;0.30;;;26.80;72.80;;;;;;4936579;29;20030;-73
2021/08/07 09:33:19;;;;;;;0.00;0.00;;;27.00;70.10;;;;;;4936553;29;20027;-72
2021/08/07 09:35:46;;;;;;;0.45;0.15;;;27.20;69.70;;;;;;4953847;29;20027;-73
2021/08/07 09:38:22;;;;;;;1.90;0.20;;;27.30;69.70;;;;;;4920805;29;20109;-73
2021/08/07 09:40:48;;;;;;;0.00;0.00;;;27.60;66.90;;;;;;4936766;29;20039;-73
2021/08/07 09:43:19;;;;;;;0.32;0.30;;;27.70;67.30;;;;;;4936560;29;20387;-72
2021/08/07 09:46:07;;;;;;;0.63;0.43;;;27.50;64.90;;;;;;4936419;29;20030;-73
2021/08/07 09:48:38;;;;;;;0.38;0.30;;;27.30;64.50;;;;;;4936807;29;20027;-73
2021/08/07 09:51:21;;;;;;;0.10;0.10;;;27.60;66.60;;;;;;4940181;28;20019;-73
2021/08/07 09:54:15;;;;;;;0.17;0.17;;;27.40;64.60;;;;;;4972927;28;20022;-73
2021/08/07 09:56:50;;;;;;;0.00;0.00;;;27.20;63.50;;;;;;4953434;28;20035;-73
2021/08/07 09:59:18;;;;;;;0.00;0.00;;;27.00;63.90;;;;;;4936297;29;20031;-73
2021/08/07 10:01:45;;;;;;;0.95;0.93;;;27.10;64.00;;;;;;4953610;28;20106;-73
2021/08/07 10:04:12;;;;;;;0.00;0.00;;;27.40;64.00;;;;;;4953372;28;20102;-73
2021/08/07 10:06:40;;;;;;;0.00;0.00;;;27.60;64.10;;;;;;4940302;29;20046;-73
2021/08/07 10:09:06;;;;;;;0.15;0.15;;;27.80;64.60;;;;;;4953364;28;20034;-73
2021/08/07 10:11:33;;;;;;;0.00;0.00;;;27.60;65.10;;;;;;4955448;28;20027;-73
2021/08/07 10:13:59;;;;;;;0.25;0.25;;;27.30;66.10;;;;;;4955298;28;20097;-72
2021/08/07 10:16:26;;;;;;;0.00;0.00;;;27.30;65.90;;;;;;4972847;28;20506;-73
2021/08/07 10:18:53;;;;;;;0.80;0.50;;;27.70;67.40;;;;;;4955086;28;20390;-75
2021/08/07 10:21:20;;;;;;;0.10;0.10;;;28.20;64.00;;;;;;4955226;28;20487;-73
2021/08/07 10:23:54;;;;;;;0.25;0.20;;;28.00;65.60;;;;;;4955326;28;20475;-73
2021/08/07 10:26:21;;;;;;;0.10;0.10;;;28.60;64.00;;;;;;4972658;28;20054;-73
2021/08/07 10:28:57;;;;;;;3.30;0.98;;;28.60;62.80;;;;;;4972449;28;20078;-73
2021/08/07 10:31:25;;;;;;;0.10;0.10;;;28.40;62.80;;;;;;4972358;28;20098;-73
2021/08/07 10:34:01;;;;;;;0.00;0.00;;;28.20;64.20;;;;;;4972544;28;20500;-73
2021/08/07 10:36:27;;;;;;;0.55;0.55;;;28.40;64.90;;;;;;4972531;28;20401;-73
2021/08/07 10:38:54;;;;;;;0.00;0.00;;;28.90;61.40;;;;;;4972647;28;20030;-72
2021/08/07 10:41:20;;;;;;;0.30;0.30;;;29.00;61.10;;;;;;4972380;28;20460;-73
2021/08/07 10:43:53;;;;;;;0.38;0.20;;;28.90;62.20;;;;;;4972814;28;20022;-73
2021/08/07 10:46:19;;;;;;;1.42;0.30;;;28.80;61.40;;;;;;4958418;28;20106;-72
2021/08/07 10:48:47;;;;;;;0.10;0.10;;;28.40;62.00;;;;;;4975762;28;20102;-73
2021/08/07 10:51:19;;;;;;;0.00;0.00;;;28.60;62.30;;;;;;4958205;28;20027;-73
2021/08/07 10:53:49;;;;;;;0.00;0.00;;;29.00;61.30;;;;;;4975836;28;20531;-73
2021/08/07 10:56:40;;;;;;;0.40;0.32;;;28.40;61.70;;;;;;4974637;28;20027;-73
2021/08/07 10:59:09;;;;;;;0.00;0.00;;;28.20;63.50;;;;;;4939424;29;20062;-73
2021/08/07 11:01:36;;;;;;;0.00;0.00;;;28.80;62.60;;;;;;4956286;29;20509;-73
2021/08/07 11:04:01;;;;;;;0.00;0.00;;;29.10;61.30;;;;;;4956409;28;20031;-73
2021/08/07 11:06:42;;;;;;;0.00;0.00;;;29.50;59.80;;;;;;4956376;28;20042;-73
2021/08/07 11:09:14;;;;;;;1.35;0.43;;;29.20;60.60;;;;;;4958211;28;20049;-73
2021/08/07 11:11:41;;;;;;;0.10;0.10;;;28.80;60.70;;;;;;4975393;28;20475;-73
2021/08/07 11:14:24;;;;;;;0.00;0.00;;;29.10;61.30;;;;;;4975488;28;20114;-73
2021/08/07 11:17:07;;;;;;;0.00;0.00;;;29.80;60.20;;;;;;4975482;28;20031;-72
2021/08/07 11:20:04;;;;;;;0.20;0.20;;;30.10;58.80;;;;;;4975412;28;20030;-73
2021/08/07 11:22:36;;;;;;;0.00;0.00;;;30.20;57.50;;;;;;4975274;28;20498;-72
2021/08/07 11:25:10;;;;;;;0.35;0.35;;;30.20;56.90;;;;;;4975100;28;20033;-73
2021/08/07 11:27:49;;;;;;;0.17;0.17;;;30.40;58.30;;;;;;4957864;28;20105;-73
2021/08/07 11:30:21;;;;;;;0.20;0.10;;;30.40;57.20;;;;;;4974958;28;20118;-72
2021/08/07 11:32:56;;;;;;;0.00;0.00;;;30.20;57.30;;;;;;4957973;28;20031;-73
2021/08/07 11:35:35;;;;;;;0.00;0.00;;;30.20;58.20;;;;;;4957566;28;20398;-73
2021/08/07 11:38:06;;;;;;;1.10;0.65;;;30.30;59.00;;;;;;4975075;28;20019;-73
2021/08/07 11:40:55;;;;;;;0.00;0.00;;;30.00;58.30;;;;;;4957560;28;20030;-72
2021/08/07 11:43:26;;;;;;;0.00;0.00;;;30.00;59.40;;;;;;4974821;28;20043;-73
2021/08/07 11:45:55;;;;;;;0.10;0.10;;;29.90;59.70;;;;;;4974522;28;20034;-73
2021/08/07 11:48:30;;;;;;;0.00;0.00;;;29.90;59.10;;;;;;4974940;28;20104;-73
2021/08/07 11:50:58;;;;;;;0.13;0.13;;;29.80;59.00;;;;;;4974738;28;20027;-72
2021/08/07 11:53:25;;;;;;;0.60;0.22;;;29.90;58.80;;;;;;4974692;28;20026;-73
2021/08/07 11:55:58;;;;;;;0.00;0.00;;;29.70;58.70;;;;;;4974426;28;20035;-73
2021/08/07 11:58:25;;;;;;;0.00;0.00;;;29.40;58.30;;;;;;4974790;28;20042;-73
2021/08/07 12:00:55;;;;;;;0.00;0.00;;;28.90;59.60;;;;;;4974526;28;20026;-72
2021/08/07 12:03:21;;;;;;;0.30;0.30;;;28.60;58.30;;;;;;4974385;28;20395;-73
2021/08/07 12:05:57;;;;;;;0.05;0.05;;;28.30;60.50;;;;;;4941106;28;20027;-72
2021/08/07 12:08:25;;;;;;;0.00;0.00;;;28.00;63.10;;;;;;4941194;28;20088;-73
2021/08/07 12:10:58;;;;;;;0.10;0.10;;;28.00;62.30;;;;;;4973659;28;20019;-73
2021/08/07 12:13:29;;;;;;;0.20;0.20;;;28.20;61.60;;;;;;4974347;28;20515;-72
2021/08/07 12:16:07;;;;;;;0.20;0.20;;;28.30;60.30;;;;;;4956866;28;20027;-73
2021/08/07 12:18:58;;;;;;;0.00;0.00;;;28.50;60.60;;;;;;4957089;28;20057;-72
2021/08/07 12:21:24;;;;;;;2.42;0.25;;;28.30;60.20;;;;;;4956747;28;20031;-73
2021/08/07 12:23:51;;;;;;;0.00;0.00;;;28.40;61.10;;;;;;4974203;28;20081;-73
2021/08/07 12:26:18;;;;;;;0.00;0.00;;;28.50;61.10;;;;;;4974007;28;20041;-74
2021/08/07 12:28:44;;;;;;;0.00;0.00;;;28.50;61.40;;;;;;4974336;28;20050;-73
2021/08/07 12:31:10;;;;;;;0.13;0.10;;;28.20;62.60;;;;;;4973908;28;20066;-73
2021/08/07 12:33:44;;;;;;;0.20;0.20;;;28.00;63.80;;;;;;4974055;28;20332;-72
2021/08/07 12:36:22;;;;;;;0.00;0.00;;;28.00;62.50;;;;;;4956857;28;20034;-72
2021/08/07 12:38:49;;;;;;;0.20;0.20;;;28.00;62.70;;;;;;4902878;29;20032;-72
2021/08/07 12:41:18;;;;;;;0.88;0.30;;;28.20;62.60;;;;;;4935361;29;20026;-72
2021/08/07 12:43:44;;;;;;;0.00;0.00;;;28.30;62.60;;;;;;4918398;29;20039;-72
2021/08/07 12:46:16;;;;;;;0.10;0.10;;;28.00;62.00;;;;;;4935513;29;20028;-72
2021/08/07 12:48:48;;;;;;;0.10;0.10;;;27.70;63.10;;;;;;4902597;29;20090;-72
2021/08/07 12:51:25;;;;;;;0.17;0.17;;;27.50;62.10;;;;;;4943286;28;20044;-72
2021/08/07 12:53:52;;;;;;;0.10;0.10;;;27.50;61.30;;;;;;4973595;28;20471;-73